Time;durP1;ratioP1;P1;durP2;ratioP2;P2;SDS_P1;SDS_P2;PMS_P1;PMS_P2;Temp;Humidity;BMP_temperature;BMP_pressure;BME280_temperature;BME280_humidity;BME280_pressure;Samples;Min_cycle;Max_cycle;Signal;HPM_P1;HPM_P2
2022/11/02 00:37:31;;;;;;;;;;;;;;;;;;;;;
2022/11/02 01:01:06;;;;;;;;;;;;;;;;;;;;;
2022/11/02 01:40:34;;;;;;;44.05;26.90;;;;;;;10.61;93.48;100716.70;2654814;102;21110;-76
2022/11/02 01:45:51;;;;;;;40.38;26.33;;;;;;;10.58;93.37;100716.21;2751819;102;21193;-76
2022/11/02 01:51:37;;;;;;;;;;;;;;;;;;;;;
2022/11/02 02:09:23;;;;;;;45.10;27.87;;;;;;;10.65;93.54;100713.30;2728397;102;21195;-75
2022/11/02 02:15:16;;;;;;;;;;;;;;;;;;;;;
2022/11/02 02:33:12;;;;;;;;;;;;;;;;;;;;;
2022/11/02 02:49:30;;;;;;;45.08;31.62;;;;;;;10.68;93.78;100717.26;2962892;93;21409;-76
2022/11/02 02:55:30;;;;;;;47.00;31.57;;;;;;;10.68;93.86;100724.63;3100233;89;21098;-76
2022/11/02 03:13:00;;;;;;;;;;;;;;;;;;;;;
2022/11/02 03:31:18;;;;;;;;;;;;;;;;;;;;;
2022/11/02 04:30:11;;;;;;;;;;;;;;;;;;;;;
2022/11/02 04:47:01;;;;;;;;;;;;;;;;;;;;;
2022/11/02 05:21:44;;;;;;;;;;;;;;;;;;;;;
2022/11/02 05:26:11;;;;;;;105.92;51.35;;;;;;;11.08;95.70;100757.34;2795091;99;21397;-76
2022/11/02 05:31:26;;;;;;;111.40;49.90;;;;;;;11.10;95.68;100763.44;2754136;101;21433;-75
2022/11/02 05:37:12;;;;;;;;;;;;;;;;;;;;;
2022/11/02 05:42:30;;;;;;;;;;;;;;;;;;;;;
2022/11/02 05:47:47;;;;;;;110.42;56.92;;;;;;;11.19;96.29;100777.88;2723436;102;21237;-75
2022/11/02 05:53:30;;;;;;;;;;;;;;;;;;;;;
2022/11/02 05:58:54;;;;;;;117.93;57.03;;;;;;;11.29;96.57;100791.50;2838431;98;21072;-75
2022/11/02 06:10:05;;;;;;;;;;;;;;;;;;;;;
2022/11/02 06:40:09;;;;;;;;;;;;;;;;;;;;;
2022/11/02 06:45:38;;;;;;;116.45;54.03;;;;;;;11.64;97.42;100831.48;2594780;107;21157;-76
2022/11/02 06:51:04;;;;;;;;;;;;;;;;;;;;;
2022/11/02 07:01:31;;;;;;;;;;;;;;;;;;;;;
2022/11/02 07:06:21;;;;;;;97.37;48.10;;;;;;;11.79;97.42;100838.22;2860491;98;21150;-77
2022/11/02 07:11:19;;;;;;;96.45;48.63;;;;;;;11.85;97.42;100834.82;2863213;98;22519;-75
2022/11/02 07:16:07;;;;;;;82.92;43.60;;;;;;;11.89;97.34;100835.73;2871070;95;21169;-73
2022/11/02 07:20:59;;;;;;;83.78;44.10;;;;;;;11.94;97.29;100837.58;2983905;93;21192;-74
2022/11/02 07:25:50;;;;;;;75.75;40.92;;;;;;;11.97;97.16;100836.33;3037534;91;21098;-74
2022/11/02 07:30:41;;;;;;;79.67;40.85;;;;;;;11.97;97.08;100840.67;3086861;90;21381;-76
2022/11/02 07:35:33;;;;;;;66.22;40.00;;;;;;;12.02;97.01;100848.13;3162557;83;21030;-74
2022/11/02 07:40:25;;;;;;;73.22;37.78;;;;;;;12.09;96.93;100843.84;3268247;84;21014;-75
2022/11/02 07:45:16;;;;;;;59.80;35.85;;;;;;;12.18;96.70;100849.20;3279636;84;21340;-75
2022/11/02 07:50:08;;;;;;;54.48;32.58;;;;;;;12.29;96.21;100849.33;3301061;83;21069;-74
2022/11/02 07:54:59;;;;;;;51.75;32.15;;;;;;;12.32;96.19;100846.33;3233662;85;21163;-74
2022/11/02 07:59:50;;;;;;;51.65;32.83;;;;;;;12.43;95.95;100846.86;3252412;84;21130;-74
2022/11/02 08:04:42;;;;;;;48.50;32.08;;;;;;;12.58;95.53;100836.17;3297239;85;20994;-75
2022/11/02 08:09:33;;;;;;;47.23;28.95;;;;;;;12.81;95.34;100834.23;3294980;84;21022;-75
2022/11/02 08:14:24;;;;;;;42.67;26.25;;;;;;;12.97;94.60;100836.13;3265452;84;21312;-75
2022/11/02 08:19:55;;;;;;;45.83;27.45;;;;;;;13.24;93.57;100842.45;3307607;84;22137;-78
2022/11/02 08:24:46;;;;;;;39.60;28.32;;;;;;;13.45;93.23;100852.22;3305544;84;21018;-79
2022/11/02 08:29:40;;;;;;;42.13;28.60;;;;;;;13.64;93.01;100845.36;3286937;84;21020;-77
2022/11/02 08:34:31;;;;;;;40.55;27.50;;;;;;;13.85;92.50;100842.02;3257538;84;21009;-77
2022/11/02 08:39:22;;;;;;;32.67;24.75;;;;;;;14.20;91.29;100837.81;3297393;85;21113;-76
2022/11/02 08:44:14;;;;;;;31.87;23.20;;;;;;;14.65;90.36;100838.88;3319586;85;21285;-76
2022/11/02 08:49:20;;;;;;;36.10;22.87;;;;;;;14.60;89.84;100839.30;3304364;84;21010;-76
2022/11/02 08:54:20;;;;;;;34.13;22.85;;;;;;;14.63;89.64;100836.66;3320877;83;21053;-78
2022/11/02 08:59:29;;;;;;;29.63;23.35;;;;;;;14.65;89.77;100838.88;3289293;84;21025;-76
2022/11/02 09:04:29;;;;;;;34.63;24.37;;;;;;;14.75;89.18;100832.77;3304654;84;20991;-74
2022/11/02 09:09:22;;;;;;;32.95;23.67;;;;;;;15.02;88.94;100833.67;3296006;83;21061;-76
2022/11/02 09:14:13;;;;;;;31.42;24.92;;;;;;;15.28;87.49;100831.52;3277051;85;20999;-76
2022/11/02 09:19:05;;;;;;;35.45;23.87;;;;;;;15.16;87.94;100833.23;3299561;85;21034;-75
2022/11/02 09:23:56;;;;;;;30.20;23.47;;;;;;;15.24;87.42;100824.95;3266977;85;21136;-77
2022/11/02 09:28:47;;;;;;;31.77;24.37;;;;;;;15.51;86.86;100825.80;3290335;85;21043;-76
2022/11/02 09:33:38;;;;;;;36.15;25.12;;;;;;;15.39;86.18;100829.75;3283798;85;20986;-77
2022/11/02 09:38:30;;;;;;;37.48;26.37;;;;;;;15.42;86.45;100833.68;3284668;85;20998;-77
2022/11/02 09:43:41;;;;;;;30.48;24.20;;;;;;;15.39;85.67;100836.30;3283954;83;21018;-77
2022/11/02 09:48:53;;;;;;;36.45;27.80;;;;;;;15.25;85.85;100838.91;3289224;85;21062;-77
2022/11/02 09:54:26;;;;;;;33.30;27.67;;;;;;;15.17;85.43;100828.45;3272018;84;21002;-79
2022/11/02 09:59:21;;;;;;;35.83;28.80;;;;;;;15.28;85.42;100836.30;3326446;83;21481;-77
2022/11/02 10:05:00;;;;;;;34.58;27.70;;;;;;;15.29;85.40;100839.78;3311042;85;21072;-77
2022/11/02 10:09:58;;;;;;;31.57;24.98;;;;;;;15.10;85.38;100840.25;3306739;83;21009;-77
2022/11/02 10:15:07;;;;;;;30.30;26.65;;;;;;;14.91;84.99;100845.89;3327734;83;20973;-78
2022/11/02 10:20:04;;;;;;;29.98;24.05;;;;;;;14.85;84.87;100838.91;3303623;84;21005;-78
2022/11/02 10:25:16;;;;;;;28.35;22.65;;;;;;;14.72;84.78;100847.18;3258768;85;21756;-78
2022/11/02 10:30:18;;;;;;;30.77;22.70;;;;;;;14.62;84.89;100855.42;3302570;85;21509;-78
2022/11/02 10:35:21;;;;;;;25.45;22.13;;;;;;;14.47;85.12;100848.39;3258315;83;21053;-76
2022/11/02 10:40:49;;;;;;;30.27;21.65;;;;;;;14.34;85.38;100851.81;3327067;84;20990;-77
2022/11/02 10:45:58;;;;;;;27.40;21.90;;;;;;;14.21;84.96;100848.72;3336549;84;21014;-77
2022/11/02 10:51:12;;;;;;;29.57;21.33;;;;;;;14.13;85.96;100851.31;3338473;83;22229;-78
2022/11/02 10:56:25;;;;;;;29.72;21.90;;;;;;;14.09;86.10;100847.81;3326910;85;21033;-78
2022/11/02 11:01:17;;;;;;;28.40;20.50;;;;;;;14.05;86.34;100844.72;3262465;83;20965;-78
2022/11/02 11:06:10;;;;;;;31.68;23.62;;;;;;;14.10;86.31;100854.77;3282937;83;21058;-77
2022/11/02 11:11:13;;;;;;;31.87;21.93;;;;;;;14.08;86.57;100849.97;3301824;84;21106;-78
2022/11/02 11:16:06;;;;;;;29.82;20.02;;;;;;;14.17;86.53;100849.59;3329205;83;22186;-77
2022/11/02 11:21:13;;;;;;;28.92;21.60;;;;;;;14.35;86.42;100852.27;3300851;83;21065;-78
2022/11/02 11:26:14;;;;;;;26.55;21.15;;;;;;;14.38;86.35;100850.98;3319168;84;21005;-78
2022/11/02 11:31:15;;;;;;;27.75;19.98;;;;;;;14.48;86.17;100851.42;3270512;83;21050;-78
2022/11/02 11:36:09;;;;;;;28.45;19.20;;;;;;;14.54;85.86;100849.29;3291259;83;21468;-77
2022/11/02 11:41:03;;;;;;;26.87;20.55;;;;;;;14.85;84.78;100840.22;3296468;84;21519;-77
2022/11/02 11:45:59;;;;;;;23.65;18.37;;;;;;;14.89;85.20;100843.71;3316185;85;21049;-78
2022/11/02 11:50:51;;;;;;;22.45;17.80;;;;;;;14.96;84.63;100833.68;3266361;83;21005;-78
2022/11/02 11:55:58;;;;;;;27.07;19.62;;;;;;;15.49;84.38;100823.63;3279230;83;21045;-77
2022/11/02 12:01:10;;;;;;;21.85;16.97;;;;;;;16.03;83.92;100814.33;3288965;85;21465;-78
2022/11/02 12:06:22;;;;;;;16.52;14.43;;;;;;;16.50;82.15;100818.46;3290886;85;21358;-77
2022/11/02 12:11:28;;;;;;;16.05;13.80;;;;;;;16.99;81.92;100822.56;3263777;85;21011;-79
2022/11/02 12:17:06;;;;;;;13.43;11.60;;;;;;;17.24;80.39;100831.11;3304140;84;21018;-78
2022/11/02 12:22:12;;;;;;;15.58;11.25;;;;;;;17.22;78.83;100822.34;3321457;84;21506;-80
2022/11/02 12:27:15;;;;;;;13.65;11.65;;;;;;;16.66;78.06;100821.87;3320016;85;21064;-77
2022/11/02 12:32:14;;;;;;;15.50;12.78;;;;;;;16.50;78.47;100821.09;3317811;83;22839;-79
2022/11/02 12:38:07;;;;;;;18.42;13.48;;;;;;;16.14;77.85;100813.84;3299748;84;20951;-78
2022/11/02 12:43:16;;;;;;;12.75;10.90;;;;;;;16.21;78.22;100821.25;3314786;84;21074;-77
2022/11/02 12:48:11;;;;;;;15.50;12.55;;;;;;;16.08;77.96;100814.30;3243804;86;22538;-78
2022/11/02 12:53:45;;;;;;;16.52;12.75;;;;;;;15.61;77.78;100817.06;3311555;85;21025;-78
2022/11/02 12:58:40;;;;;;;16.02;11.70;;;;;;;15.66;78.74;100814.41;3283210;84;21527;-78
2022/11/02 13:03:49;;;;;;;15.35;12.18;;;;;;;15.76;79.09;100804.38;3203507;87;20982;-81
2022/11/02 13:09:19;;;;;;;13.75;12.33;;;;;;;15.87;78.59;100810.89;3210995;88;21080;-79
2022/11/02 13:14:17;;;;;;;16.65;12.58;;;;;;;15.88;78.75;100810.45;3178101;88;21158;-77
2022/11/02 13:19:22;;;;;;;18.10;11.97;;;;;;;15.75;77.98;100805.69;3256660;85;21265;-77
2022/11/02 13:24:17;;;;;;;13.98;12.55;;;;;;;15.67;78.42;100799.55;3303064;85;22499;-79
2022/11/02 13:29:38;;;;;;;14.18;12.68;;;;;;;15.46;78.09;100800.48;3323085;84;21438;-78
2022/11/02 13:34:40;;;;;;;11.97;10.72;;;;;;;15.21;78.23;100802.69;3308296;84;20983;-79
2022/11/02 13:39:39;;;;;;;18.57;13.70;;;;;;;15.02;78.50;100810.11;3293283;85;21120;-78
2022/11/02 13:45:11;;;;;;;16.55;12.65;;;;;;;14.77;78.98;100810.53;3309762;85;21187;-80
2022/11/02 13:50:07;;;;;;;16.48;13.78;;;;;;;14.60;79.29;100812.69;3282595;85;22594;-79
2022/11/02 13:55:02;;;;;;;15.18;12.70;;;;;;;14.41;79.64;100820.88;3257848;84;21046;-79
2022/11/02 13:59:55;;;;;;;16.55;13.58;;;;;;;14.28;79.94;100817.80;3198731;86;21082;-80
2022/11/02 14:04:47;;;;;;;20.82;13.95;;;;;;;14.17;80.31;100819.52;3169976;87;21493;-76
2022/11/02 14:09:41;;;;;;;18.30;13.58;;;;;;;14.05;80.59;100815.97;3185373;88;21070;-76
2022/11/02 14:14:32;;;;;;;13.20;11.53;;;;;;;13.94;80.76;100825.51;3224188;87;21338;-75
2022/11/02 14:19:31;;;;;;;13.08;11.53;;;;;;;13.81;80.62;100823.72;3265014;85;21080;-78
2022/11/02 14:24:37;;;;;;;14.28;10.70;;;;;;;13.68;80.51;100822.33;3179862;88;21865;-78
2022/11/02 14:29:46;;;;;;;14.50;11.40;;;;;;;13.57;80.45;100817.89;3293687;83;20985;-78
2022/11/02 14:34:59;;;;;;;17.05;12.55;;;;;;;13.45;80.47;100823.90;3290023;84;21016;-75
2022/11/02 14:40:20;;;;;;;16.00;12.00;;;;;;;13.33;80.52;100824.70;3346303;83;21595;-77
2022/11/02 14:45:38;;;;;;;15.93;11.78;;;;;;;13.21;80.63;100823.27;3300232;84;21108;-75
2022/11/02 14:50:31;;;;;;;17.70;14.23;;;;;;;13.07;80.75;100820.54;3310840;84;21615;-76
2022/11/02 14:55:31;;;;;;;19.87;14.13;;;;;;;12.89;80.86;100819.52;3285838;84;21481;-76
2022/11/02 15:00:32;;;;;;;18.23;14.13;;;;;;;12.74;81.06;100819.39;3263854;83;21057;-75
2022/11/02 15:05:36;;;;;;;18.10;14.18;;;;;;;12.57;81.31;100834.44;3287593;84;22837;-76
2022/11/02 15:10:39;;;;;;;20.60;15.40;;;;;;;12.45;81.69;100842.12;3302879;83;20966;-75
2022/11/02 15:15:37;;;;;;;21.87;15.68;;;;;;;12.34;81.98;100841.11;3299528;84;21046;-75
2022/11/02 15:20:31;;;;;;;23.70;16.35;;;;;;;12.20;82.09;100838.36;3296004;84;21035;-77
2022/11/02 15:25:31;;;;;;;20.57;16.95;;;;;;;12.07;82.24;100845.12;3287187;84;21544;-76
2022/11/02 15:30:24;;;;;;;20.65;16.40;;;;;;;11.96;82.49;100855.84;3299048;83;21603;-75
2022/11/02 15:35:40;;;;;;;22.35;15.72;;;;;;;11.82;82.69;100859.12;3322269;84;21017;-75
2022/11/02 15:40:45;;;;;;;21.42;16.50;;;;;;;11.70;82.78;100856.33;3314837;84;20983;-74
2022/11/02 15:46:07;;;;;;;23.35;17.20;;;;;;;11.54;82.74;100867.37;3258672;85;21129;-77
2022/11/02 15:51:33;;;;;;;22.52;16.17;;;;;;;11.36;82.87;100879.24;3260313;84;21397;-76
2022/11/02 15:56:53;;;;;;;14.95;13.03;;;;;;;11.22;83.32;100875.53;3297744;84;21043;-76
2022/11/02 16:02:17;;;;;;;20.70;14.90;;;;;;;11.05;83.18;100881.33;3324883;84;20932;-77
2022/11/02 16:07:17;;;;;;;18.25;12.90;;;;;;;10.78;82.43;100889.48;3221422;86;21228;-76
2022/11/02 16:12:17;;;;;;;17.15;12.33;;;;;;;10.59;82.93;100892.17;3195610;86;20998;-75
2022/11/02 16:17:30;;;;;;;17.32;14.28;;;;;;;10.44;82.71;100893.16;3215191;86;21198;-75
2022/11/02 16:22:25;;;;;;;13.43;11.68;;;;;;;10.28;82.99;100905.82;3188110;86;21337;-75
2022/11/02 16:27:17;;;;;;;18.45;14.05;;;;;;;10.14;82.79;100899.45;3229335;87;21730;-75
2022/11/02 16:32:11;;;;;;;19.48;14.28;;;;;;;10.01;83.04;100903.91;3179749;86;21408;-75
2022/11/02 16:37:22;;;;;;;17.48;14.33;;;;;;;9.87;83.03;100899.69;3189726;88;21132;-76
2022/11/02 16:42:43;;;;;;;15.20;12.07;;;;;;;9.73;82.72;100900.70;3257875;86;21038;-77
2022/11/02 16:47:41;;;;;;;18.20;12.33;;;;;;;9.60;82.88;100902.53;3189732;87;20994;-76
2022/11/02 16:52:36;;;;;;;14.28;12.70;;;;;;;9.49;82.77;100910.06;3208344;86;21033;-76
2022/11/02 16:57:31;;;;;;;18.70;13.08;;;;;;;9.40;82.75;100916.33;3218002;87;21053;-78
2022/11/02 17:02:33;;;;;;;20.75;15.35;;;;;;;9.28;82.96;100910.39;3209999;87;21014;-76
2022/11/02 17:07:36;;;;;;;20.97;14.53;;;;;;;9.19;83.09;100921.41;3232941;87;21600;-77
2022/11/02 17:12:32;;;;;;;19.75;14.00;;;;;;;9.09;83.03;100933.28;3243093;86;21214;-76
2022/11/02 17:17:33;;;;;;;19.95;15.35;;;;;;;8.98;83.06;100937.31;3235112;86;32609;-76
2022/11/02 17:22:26;;;;;;;17.37;14.70;;;;;;;8.84;83.01;100930.88;3195468;87;21053;-76
2022/11/02 17:27:27;;;;;;;21.70;17.17;;;;;;;8.77;83.26;100943.65;3190386;87;21016;-76
2022/11/02 17:32:20;;;;;;;28.00;21.45;;;;;;;8.61;82.90;100934.98;3219299;87;20954;-76
2022/11/02 17:37:24;;;;;;;31.27;25.35;;;;;;;8.53;82.98;100935.17;3194716;87;21533;-76
2022/11/02 17:47:26;;;;;;;29.90;23.52;;;;;;;8.42;83.54;100932.66;3220438;87;21020;-75
2022/11/02 17:52:18;;;;;;;34.27;26.10;;;;;;;8.31;83.05;100931.05;3179664;87;21144;-76
2022/11/02 17:57:14;;;;;;;34.90;26.02;;;;;;;8.25;83.66;100925.28;3209094;87;21504;-75
2022/11/02 18:02:14;;;;;;;37.17;26.52;;;;;;;8.18;83.44;100931.11;3189831;86;21219;-77
2022/11/02 18:07:05;;;;;;;39.48;29.65;;;;;;;8.16;83.51;100930.19;3173866;87;21518;-75
2022/11/02 18:12:20;;;;;;;43.00;30.95;;;;;;;8.19;84.10;100922.09;3206769;86;21481;-75
2022/11/02 18:17:11;;;;;;;37.05;30.50;;;;;;;8.28;84.15;100921.49;3157492;89;21051;-75
2022/11/02 18:22:03;;;;;;;43.80;33.15;;;;;;;8.34;84.44;100920.36;3115753;88;21572;-75
2022/11/02 18:26:54;;;;;;;43.90;34.15;;;;;;;8.45;84.75;100918.54;3143936;88;21307;-74
2022/11/02 18:31:46;;;;;;;43.73;32.98;;;;;;;8.53;84.90;100923.51;3154238;88;21070;-75
2022/11/02 18:36:39;;;;;;;38.95;28.55;;;;;;;8.62;85.19;100922.50;3150938;88;21057;-75
2022/11/02 18:41:33;;;;;;;42.38;30.27;;;;;;;8.73;85.35;100921.50;3197897;88;21064;-75
2022/11/02 18:46:25;;;;;;;37.80;29.00;;;;;;;8.76;85.43;100915.98;3254624;85;21314;-75
2022/11/02 18:51:17;;;;;;;37.42;28.60;;;;;;;8.82;85.42;100924.34;3249025;83;21047;-76
2022/11/02 18:56:09;;;;;;;36.40;29.12;;;;;;;8.82;85.40;100927.33;3287054;84;21060;-75
2022/11/02 19:01:12;;;;;;;37.75;28.60;;;;;;;8.79;85.58;100908.70;3292440;84;21046;-74
2022/11/02 19:11:14;;;;;;;40.65;30.52;;;;;;;8.93;85.89;100928.52;3298328;84;20981;-77
2022/11/02 19:16:06;;;;;;;38.23;26.42;;;;;;;8.99;86.20;100926.51;3278708;84;22487;-75
2022/11/02 19:20:57;;;;;;;33.30;26.70;;;;;;;9.05;86.47;100928.86;3325115;84;21311;-77
2022/11/02 19:25:52;;;;;;;29.65;25.62;;;;;;;9.11;86.53;100927.70;3270680;84;21042;-75
2022/11/02 19:30:46;;;;;;;33.25;26.60;;;;;;;9.15;86.55;100930.83;3297983;84;21724;-77
2022/11/02 19:35:37;;;;;;;31.48;25.55;;;;;;;9.20;86.63;100932.27;3262340;85;21024;-76
2022/11/02 19:40:28;;;;;;;28.60;23.42;;;;;;;9.24;86.67;100934.52;3279726;84;21560;-76
2022/11/02 19:45:20;;;;;;;29.67;22.98;;;;;;;9.27;86.86;100935.91;3295371;84;21011;-77
2022/11/02 19:50:11;;;;;;;30.80;23.87;;;;;;;9.33;87.15;100942.53;3297440;84;21456;-75
2022/11/02 19:55:03;;;;;;;37.38;26.37;;;;;;;9.37;87.22;100949.55;3275703;84;21015;-76
2022/11/02 20:00:11;;;;;;;29.95;25.25;;;;;;;9.42;87.25;100962.22;3296114;84;21006;-75
2022/11/02 20:05:08;;;;;;;36.93;29.52;;;;;;;9.48;87.43;100962.39;3306393;85;21493;-76
2022/11/02 20:09:59;;;;;;;48.63;27.20;;;;;;;9.50;87.31;100967.20;3240105;83;21283;-76
2022/11/02 20:15:03;;;;;;;32.65;22.80;;;;;;;9.53;87.39;100964.70;3298332;85;21002;-77
2022/11/02 20:19:55;;;;;;;19.95;12.47;;;;;;;9.59;87.57;100971.75;3154408;88;21081;-75
2022/11/02 20:24:54;;;;;;;15.35;11.05;;;;;;;9.71;87.90;100975.05;3150489;89;21184;-75
2022/11/02 20:29:51;;;;;;;15.50;10.70;;;;;;;9.84;87.84;100977.13;3123744;88;21735;-75
2022/11/02 20:34:42;;;;;;;18.30;12.70;;;;;;;9.93;87.67;100981.23;3094570;89;21342;-76
2022/11/02 20:39:33;;;;;;;17.12;10.28;;;;;;;10.04;87.45;100988.41;3110631;89;21099;-76
2022/11/02 20:44:24;;;;;;;20.40;9.80;;;;;;;10.10;87.34;100988.14;3153603;89;21001;-76
2022/11/02 20:49:15;;;;;;;15.45;8.65;;;;;;;10.19;87.22;100988.75;3152195;89;21084;-76
2022/11/02 20:54:10;;;;;;;20.37;9.28;;;;;;;10.30;86.91;100981.19;3137798;88;22244;-75
2022/11/02 20:59:01;;;;;;;20.72;10.35;;;;;;;10.37;86.86;100990.05;3130297;89;21040;-76
2022/11/02 21:03:52;;;;;;;16.42;8.63;;;;;;;10.41;86.70;100995.36;3139704;89;22475;-75
2022/11/02 21:08:48;;;;;;;15.18;8.40;;;;;;;10.45;86.55;100998.91;3135315;89;21003;-76
2022/11/02 21:13:51;;;;;;;15.43;7.78;;;;;;;10.51;86.32;100987.75;3069071;86;21008;-77
2022/11/02 21:18:43;;;;;;;15.85;7.42;;;;;;;10.52;86.60;100990.39;3171172;87;21076;-76
2022/11/02 21:23:35;;;;;;;15.10;8.08;;;;;;;10.48;86.58;100997.65;3200914;86;21002;-76
2022/11/02 21:28:33;;;;;;;16.60;9.23;;;;;;;10.41;86.70;100994.45;3183631;87;20963;-74
2022/11/02 21:33:40;;;;;;;;;;;;;;;10.33;86.87;100992.13;3183468;87;21030;-75
2022/11/02 21:38:47;;;;;;;12.95;8.50;;;;;;;10.23;86.88;100985.40;3195189;87;20169;-75
2022/11/02 21:44:10;;;;;;;13.40;7.70;;;;;;;10.11;86.83;100982.52;3184553;87;21991;-76
2022/11/02 21:49:26;;;;;;;10.78;7.65;;;;;;;9.98;86.81;100985.25;3211696;86;21046;-77
2022/11/02 21:54:15;;;;;;;10.50;6.62;;;;;;;9.79;86.55;100985.22;3182911;86;21079;-76
2022/11/02 21:59:31;;;;;;;16.73;8.10;;;;;;;9.62;86.57;100990.41;3164973;87;22380;-77
2022/11/02 22:04:34;;;;;;;12.37;7.47;;;;;;;9.46;86.86;100993.93;3130143;89;21168;-78
2022/11/02 22:09:25;;;;;;;12.10;7.65;;;;;;;9.34;87.18;101000.09;3096220;89;21027;-75
2022/11/02 22:14:39;;;;;;;7.85;5.58;;;;;;;9.18;87.07;100995.34;3102146;88;21127;-76
2022/11/02 22:20:16;;;;;;;;;;;;;;;;;;;;;
2022/11/02 22:25:15;;;;;;;11.03;6.87;;;;;;;8.85;86.67;101002.62;3082895;89;21125;-74
2022/11/02 22:30:30;;;;;;;;;;;;;;;;;;;;;
2022/11/02 22:35:44;;;;;;;;;;;;;;;;;;;;;
2022/11/02 22:46:35;;;;;;;9.95;8.20;;;;;;;8.40;87.09;101012.51;3042506;90;21660;-76
2022/11/02 22:51:29;;;;;;;10.63;7.17;;;;;;;8.28;86.88;101009.58;3034037;90;21053;-76
2022/11/02 22:56:22;;;;;;;10.80;8.03;;;;;;;8.25;87.23;101022.42;3083004;90;21029;-76
2022/11/02 23:01:18;;;;;;;13.68;8.48;;;;;;;8.28;87.46;101026.80;3011088;90;22196;-76
2022/11/02 23:06:10;;;;;;;14.05;9.33;;;;;;;8.36;87.62;101028.80;3063492;91;21025;-76
2022/11/02 23:11:22;;;;;;;14.80;8.85;;;;;;;8.36;87.62;101028.80;3059361;91;21120;-76
2022/11/02 23:16:21;;;;;;;16.62;9.88;;;;;;;8.38;88.28;101032.31;3072814;89;22425;-77
2022/11/02 23:21:13;;;;;;;19.45;10.40;;;;;;;8.49;88.99;101038.28;3212204;86;21027;-77
2022/11/02 23:26:04;;;;;;;21.68;9.63;;;;;;;8.58;89.31;101030.78;3302224;84;21991;-76
2022/11/02 23:36:16;;;;;;;17.35;7.72;;;;;;;8.92;89.39;101048.63;3303920;84;20964;-75
2022/11/02 23:41:07;;;;;;;11.28;6.45;;;;;;;9.06;89.03;101052.50;3337913;83;21113;-76
2022/11/02 23:45:59;;;;;;;12.70;7.92;;;;;;;9.19;88.53;101051.55;3293800;84;21528;-77
